Flight Track Log - Related Links

Times and Time Zones

All times are in EDT time to prevent confusion due to time zone crossing. See the N43317 flight status page for this flight to view local times or setup timezone preferences in your user account.

Time Position Orientation Groundspeed Altitude Reporting Facility
EDT Latitude Longitude Course Direction KTS MPH feet Rate Location/Type
Tue 04:03:23 PM 38.5667 -90.2167 297° West 74 85 1,700  Level Gateway (St. Louis) TRACON
Tue 04:04:07 PM 38.5686 -90.2306 280° West 76 87 1,900 509 Climbing Kansas City Center
Tue 04:05:09 PM 38.5728 -90.2583 281° West 77 89 2,600 532 Climbing Kansas City Center
Tue 04:06:11 PM 38.5781 -90.2897 282° West 84 97 3,000 242 Climbing Kansas City Center
Tue 04:07:13 PM 38.5825 -90.3228 280° West 89 102 3,100 194 Climbing Kansas City Center
Tue 04:08:00 PM 38.6628 -90.3320 297° West  Level FlightAware Approximate
Tue 04:08:15 PM 38.5864 -90.3619 277° West 102 117 3,400  Level Kansas City Center
Tue 04:09:18 PM 38.5911 -90.3919 281° West 93 107 4,000 528 Climbing Kansas City Center
Tue 04:10:20 PM 38.5956 -90.4192 282° West 84 97 4,500 581 Climbing Kansas City Center
Tue 04:11:22 PM 38.5992 -90.4508 278° West 77 89 5,200 629 Climbing Kansas City Center
Tue 04:12:24 PM 38.6147 -90.4694 317° Northwest 77 89 5,800 387 Climbing Kansas City Center
Tue 04:13:26 PM 38.6322 -90.4908 316° Northwest 85 98 6,000 97 Climbing Kansas City Center
Tue 04:14:28 PM 38.6547 -90.5194 315° West 108 124 6,000  Level Kansas City Center
Tue 04:15:30 PM 38.6775 -90.5503 313° West 117 135 6,000  Level Kansas City Center
Tue 04:16:32 PM 38.7003 -90.5803 314° West 117 135 6,000  Level Kansas City Center
Tue 04:17:34 PM 38.7236 -90.6108 314° West 119 137 6,000  Level Kansas City Center
Tue 04:18:36 PM 38.7447 -90.6417 311° West 116 133 6,000  Level Kansas City Center
Tue 04:19:38 PM 38.7711 -90.6778 313° West 115 132 6,000  Level Kansas City Center
Tue 04:20:40 PM 38.7881 -90.7117 303° West 113 130 6,000  Level Kansas City Center
Tue 04:21:42 PM 38.8058 -90.7436 306° West 112 129 6,000  Level Kansas City Center
Tue 04:22:44 PM 38.8231 -90.7750 305° West 109 125 6,000  Level Kansas City Center
Tue 04:23:46 PM 38.8406 -90.8092 303° West 112 129 6,000  Level Kansas City Center
Tue 04:24:48 PM 38.8581 -90.8400 306° West 109 125 6,000  Level Kansas City Center
Tue 04:25:50 PM 38.8797 -90.8789 306° West 112 129 6,000  Level Kansas City Center
Tue 04:26:52 PM 38.8969 -90.9108 305° West 110 127 6,000  Level Kansas City Center
Tue 04:27:54 PM 38.9122 -90.9431 301° West 107 123 6,000  Level Kansas City Center
Tue 04:28:56 PM 38.9303 -90.9767 305° West 112 129 6,000  Level Kansas City Center
Tue 04:29:58 PM 38.9475 -91.0081 305° West 111 128 6,000  Level Kansas City Center
Tue 04:31:00 PM 38.9653 -91.0403 305° West 110 127 6,000  Level Kansas City Center
Tue 04:32:02 PM 38.9853 -91.0789 304° West 109 125 6,000  Level Kansas City Center
Tue 04:33:04 PM 39.0031 -91.1114 305° West 110 127 6,000  Level Kansas City Center
Tue 04:34:06 PM 39.0200 -91.1425 305° West 108 124 6,000 -48 Level Kansas City Center
Tue 04:35:08 PM 39.0375 -91.1758 304° West 110 127 5,900  Descending Kansas City Center
Tue 04:36:10 PM 39.0544 -91.2100 303° West 112 129 6,000 97 Climbing Kansas City Center
Tue 04:37:12 PM 39.0761 -91.2461 308° West 109 125 6,100  Climbing Kansas City Center
Tue 04:38:14 PM 39.0936 -91.2767 306° West 108 124 6,000 -48 Descending Kansas City Center
Tue 04:39:16 PM 39.1111 -91.3100 304° West 110 127 6,000  Level Kansas City Center
Tue 04:40:18 PM 39.1278 -91.3408 305° West 108 124 6,000 48 Level Kansas City Center
Tue 04:41:20 PM 39.1456 -91.3744 304° West 110 127 6,100 48 Climbing Kansas City Center
Tue 04:42:22 PM 39.1636 -91.4075 305° West 112 129 6,100  Level Kansas City Center
Tue 04:43:24 PM 39.1842 -91.4481 303° West 112 129 6,100  Level Kansas City Center
Tue 04:44:26 PM 39.2011 -91.4786 306° West 107 123 6,100  Level Kansas City Center
Tue 04:45:29 PM 39.2203 -91.5108 308° West 111 128 6,100  Level Kansas City Center
Tue 04:46:31 PM 39.2375 -91.5447 303° West 113 130 6,100  Level Kansas City Center
Tue 04:47:33 PM 39.2567 -91.5758 309° West 112 129 6,100  Level Kansas City Center
Tue 04:48:35 PM 39.2758 -91.6058 310° West 109 125 6,100  Level Kansas City Center
Tue 04:49:37 PM 39.2975 -91.6431 307° West 109 125 6,100  Level Kansas City Center
Tue 04:50:39 PM 39.3158 -91.6753 306° West 110 127 6,100  Level Kansas City Center
Tue 04:51:41 PM 39.3314 -91.7069 302° West 111 128 6,100  Level Kansas City Center
Tue 04:52:43 PM 39.3506 -91.7361 310° West 109 125 6,100  Level Kansas City Center
Tue 04:53:45 PM 39.3703 -91.7764 302° West 111 128 6,100  Level Kansas City Center
Tue 04:54:47 PM 39.3900 -91.8058 311° West 109 125 6,100 48 Level Kansas City Center
Tue 04:55:49 PM 39.4075 -91.8378 305° West 110 127 6,200  Climbing Kansas City Center
Tue 04:56:51 PM 39.4264 -91.8703 307° West 113 130 6,100 -48 Descending Kansas City Center
Tue 04:57:53 PM 39.4442 -91.9031 305° West 112 129 6,100  Level Kansas City Center
Tue 04:58:55 PM 39.4661 -91.9419 306° West 112 129 6,100  Level Kansas City Center
Tue 04:59:57 PM 39.4844 -91.9744 306° West 112 129 6,100  Level Kansas City Center
Tue 05:00:59 PM 39.5044 -92.0036 312° West 109 125 6,100  Level Kansas City Center
Tue 05:02:01 PM 39.5231 -92.0361 307° West 111 128 6,100 -48 Level Kansas City Center
Tue 05:03:03 PM 39.5408 -92.0708 304° West 114 131 6,000 -48 Descending Kansas City Center
Tue 05:04:05 PM 39.5625 -92.1083 307° West 112 129 6,000  Level Kansas City Center
Tue 05:05:07 PM 39.5808 -92.1422 305° West 113 130 6,000  Level Kansas City Center
Tue 05:06:09 PM 39.5989 -92.1722 308° West 110 127 6,000  Level Kansas City Center
Tue 05:08:13 PM 39.6358 -92.2372 306° West 113 130 6,000  Level Kansas City Center
Tue 05:09:15 PM 39.6575 -92.2761 306° West 112 129 6,000  Level Kansas City Center
Tue 05:10:17 PM 39.6761 -92.3081 307° West 113 130 6,000  Level Kansas City Center
Tue 05:11:19 PM 39.6947 -92.3392 308° West 112 129 6,000  Level Kansas City Center
Tue 05:12:21 PM 39.7131 -92.3706 307° West 109 125 6,000  Level Kansas City Center
Tue 05:13:23 PM 39.7314 -92.4025 307° West 111 128 6,000  Level Kansas City Center
Tue 05:14:25 PM 39.7539 -92.4408 307° West 111 128 6,000  Level Kansas City Center
Tue 05:15:27 PM 39.7714 -92.4728 305° West 110 127 6,000  Level Kansas City Center
Tue 05:16:29 PM 39.7889 -92.5050 305° West 110 127 6,000  Level Kansas City Center
Tue 05:17:31 PM 39.8056 -92.5381 303° West 109 125 6,000  Level Kansas City Center
Tue 05:18:33 PM 39.8261 -92.5686 311° West 111 128 6,000  Level Kansas City Center
Tue 05:19:35 PM 39.8458 -92.6075 303° West 109 125 6,000  Level Kansas City Center
Tue 05:20:38 PM 39.8642 -92.6394 307° West 109 125 6,000 48 Level Kansas City Center
Tue 05:21:40 PM 39.8786 -92.6725 300° West 108 124 6,100  Climbing Kansas City Center
Tue 05:22:42 PM 39.8950 -92.7053 303° West 108 124 6,000 -48 Descending Kansas City Center
Tue 05:23:44 PM 39.9114 -92.7394 302° West 109 125 6,000  Level Kansas City Center
Tue 05:24:46 PM 39.9269 -92.7728 301° West 109 125 6,000  Level Kansas City Center
Tue 05:25:48 PM 39.9442 -92.8131 299° West 108 124 6,000  Level Kansas City Center
Tue 05:26:50 PM 39.9611 -92.8456 304° West 108 124 6,000 48 Level Kansas City Center
Tue 05:27:52 PM 39.9769 -92.8789 302° West 108 124 6,100  Climbing Kansas City Center
Tue 05:28:54 PM 39.9939 -92.9122 304° West 110 127 6,000  Descending Kansas City Center
Tue 05:29:56 PM 40.0089 -92.9456 300° West 109 125 6,100  Climbing Kansas City Center
Tue 05:30:58 PM 40.0281 -92.9858 302° West 109 125 6,000 -48 Descending Kansas City Center
Tue 05:32:00 PM 40.0428 -93.0200 299° West 109 125 6,000  Level Kansas City Center
Tue 05:33:02 PM 40.0622 -93.0508 309° West 109 125 6,000  Level Kansas City Center
Tue 05:34:04 PM 40.0783 -93.0828 303° West 108 124 6,000  Level Kansas City Center
Tue 05:35:06 PM 40.0931 -93.1161 300° West 107 123 6,000  Level Kansas City Center
Tue 05:36:08 PM 40.1119 -93.1553 302° West 107 123 6,000  Level Kansas City Center
Tue 05:37:10 PM 40.1283 -93.1872 304° West 106 122 6,000  Level Kansas City Center
Tue 05:38:12 PM 40.1442 -93.2203 302° West 107 123 6,000  Level Kansas City Center
Tue 05:39:14 PM 40.1592 -93.2536 300° West 107 123 6,000  Level Kansas City Center
Tue 05:40:16 PM 40.1761 -93.2858 305° West 108 124 6,000  Level Kansas City Center
Tue 05:41:18 PM 40.1961 -93.3231 305° West 106 122 6,000  Level Kansas City Center
Tue 05:42:20 PM 40.2117 -93.3575 301° West 108 124 6,000  Level Kansas City Center
Tue 05:43:22 PM 40.2272 -93.3903 302° West 108 124 6,000  Level Kansas City Center
Tue 05:44:24 PM 40.2442 -93.4219 305° West 107 123 6,000  Level Kansas City Center
Tue 05:45:26 PM 40.2611 -93.4542 305° West 108 124 6,000 48 Level Kansas City Center
Tue 05:46:28 PM 40.2808 -93.4922 304° West 107 123 6,100  Climbing Kansas City Center
Tue 05:47:30 PM 40.2964 -93.5264 301° West 109 125 6,000  Descending Kansas City Center
Tue 05:48:33 PM 40.3139 -93.5592 305° West 110 127 6,100  Climbing Kansas City Center
Tue 05:49:35 PM 40.3303 -93.5939 302° West 111 128 6,000 -48 Descending Kansas City Center
Tue 05:50:37 PM 40.3469 -93.6258 304° West 110 127 6,000  Level Kansas City Center
Tue 05:51:39 PM 40.3683 -93.6664 305° West 111 128 6,000  Level Kansas City Center
Tue 05:52:41 PM 40.3856 -93.6986 305° West 111 128 6,000 -47 Level Kansas City Center
Tue 05:53:47 PM 40.4008 -93.7339 300° West 110 127 5,900 -47 Descending Minneapolis Center
Tue 05:54:49 PM 40.4181 -93.7683 303° West 112 129 5,900  Level Minneapolis Center
Tue 05:55:51 PM 40.4389 -93.8075 305° West 111 128 5,900 48 Level Minneapolis Center
Tue 05:56:53 PM 40.4547 -93.8397 303° West 110 127 6,000 48 Climbing Minneapolis Center
Tue 05:57:55 PM 40.4722 -93.8714 306° West 108 124 6,000  Level Minneapolis Center
Tue 05:58:57 PM 40.4894 -93.9050 304° West 109 125 6,000  Level Minneapolis Center
Tue 06:00:02 PM 40.5086 -93.9447 302° West 109 125 6,000  Level Minneapolis Center
Tue 06:01:04 PM 40.5242 -93.9783 301° West 109 125 6,000  Level Minneapolis Center
Tue 06:02:06 PM 40.5403 -94.0125 302° West 110 127 6,000  Level Minneapolis Center
Tue 06:03:08 PM 40.5547 -94.0469 299° West 109 125 6,000  Level Minneapolis Center
Tue 06:04:10 PM 40.5728 -94.0869 301° West 108 124 6,000  Level Minneapolis Center
Tue 06:05:12 PM 40.5886 -94.1214 301° West 109 125 6,000  Level Minneapolis Center
Tue 06:06:14 PM 40.6081 -94.1539 308° West 110 127 6,000 -48 Level Minneapolis Center
Tue 06:07:16 PM 40.6239 -94.1886 301° West 111 128 5,900  Descending Minneapolis Center
Tue 06:08:18 PM 40.6406 -94.2222 303° West 111 128 6,000 49 Climbing Minneapolis Center
Tue 06:09:19 PM 40.6589 -94.2536 308° West 109 125 6,000  Level Minneapolis Center
Tue 06:10:21 PM 40.6803 -94.2906 307° West 107 123 6,000 48 Level Minneapolis Center
Tue 06:11:23 PM 40.6983 -94.3208 308° West 106 122 6,100 48 Climbing Minneapolis Center
Tue 06:12:25 PM 40.7139 -94.3525 303° West 105 121 6,100  Level Minneapolis Center
Tue 06:13:27 PM 40.7294 -94.3853 302° West 105 121 6,100  Level Minneapolis Center
Tue 06:14:29 PM 40.7467 -94.4181 305° West 109 125 6,100  Level Minneapolis Center
Tue 06:15:31 PM 40.7658 -94.4592 302° West 110 127 6,100  Level Minneapolis Center
Tue 06:16:33 PM 40.7831 -94.4928 304° West 112 129 6,100  Level Minneapolis Center
Tue 06:17:35 PM 40.7994 -94.5258 303° West 109 125 6,100 -48 Level Minneapolis Center
Tue 06:18:37 PM 40.8181 -94.5636 303° West 110 127 6,000 -48 Descending Minneapolis Center
Tue 06:19:39 PM 40.8347 -94.5981 303° West 111 128 6,000  Level Minneapolis Center
Tue 06:20:41 PM 40.8514 -94.6308 304° West 109 125 6,000 -48 Level Minneapolis Center
Tue 06:21:43 PM 40.8681 -94.6656 302° West 110 127 5,900  Descending Minneapolis Center
Tue 06:22:45 PM 40.8856 -94.6997 304° West 111 128 6,000 48 Climbing Minneapolis Center
Tue 06:23:47 PM 40.9022 -94.7336 303° West 111 128 6,000  Level Minneapolis Center
Tue 06:24:49 PM 40.9222 -94.7747 303° West 110 127 6,000  Level Minneapolis Center
Tue 06:25:51 PM 40.9394 -94.8097 303° West 112 129 6,000  Level Minneapolis Center
Tue 06:26:53 PM 40.9567 -94.8447 303° West 113 130 6,000  Level Minneapolis Center
Tue 06:27:55 PM 40.9744 -94.8806 303° West 114 131 6,000  Level Minneapolis Center
Tue 06:28:57 PM 41.0067 -94.9192 318° Northwest 117 135 6,000  Level Minneapolis Center
Tue 06:29:59 PM 41.0064 -94.9528 269° West 114 131 6,000  Level Minneapolis Center
Tue 06:30:58 PM 41.0394 -94.9950 316° Northwest 120 138 6,000 -200 Level Minneapolis Center
Tue 06:31:59 PM 41.0550 -95.0347 297° West 126 145 5,600 -492 Descending Minneapolis Center
Tue 06:33:00 PM 41.0728 -95.0767 299° West 133 153 5,000 -590 Descending Minneapolis Center
Tue 06:34:01 PM 41.0931 -95.1239 300° West 146 168 4,400 -422 Descending Minneapolis Center
Tue 06:35:08 PM 41.1156 -95.1736 301° West 140 161 4,100 -229 Descending Minneapolis Center
Tue 06:36:12 PM 41.1228 -95.2078 286° West 135 155 3,900  Descending Minneapolis Center
Tue 06:37:14 PM 41.1353 -95.2533 290° West 121 139 4,100 102 Climbing Minneapolis Center
Tue 06:38:10 PM 41.1508 -95.2883 301° West 106 122 4,100 -51 Level Minneapolis Center
Tue 06:39:11 PM 41.1600 -95.3286 287° West 111 128 4,000  Descending Minneapolis Center
Tue 06:40:06 PM 41.1711 -95.3661 291° West 117 135 4,100  Climbing Minneapolis Center
Tue 06:41:22 PM 41.1739 -95.4075 275° West 112 129 4,000  Descending Minneapolis Center
Tue 06:42:13 PM 41.1894 -95.4469 298° West 108 124 4,100 -107 Climbing Minneapolis Center
Tue 06:43:14 PM 41.1986 -95.4875 287° West 112 129 3,800 -393 Descending Minneapolis Center
Tue 06:44:15 PM 41.2058 -95.5336 282° West 132 152 3,300 -393 Descending Minneapolis Center
Tue 06:45:16 PM 41.2111 -95.5800 279° West 128 147 3,000 -104 Descending Minneapolis Center
Tue 06:46:10 PM 41.2178 -95.6153 284° West 109 125 3,100  Climbing Minneapolis Center
Tue 06:46:32 PM 41.2164 -95.6250 259° West 118 136 3,000  Descending Minneapolis Center
Tue 06:47:34 PM 41.2211 -95.6642 279° West 117 135 3,100 97 Climbing Minneapolis Center

Login

Don't have an account? Register now (free) for customized features, flight alerts, and more!